sensor_id;sensor_type;location;lat;lon;timestamp;pressure;altitude;pressure_sealevel;temperature;humidity
54882;BME280;40775;51.448;4.742;2022-09-09T00:04:33;100630.88;;;17.80;76.37
54882;BME280;40775;51.448;4.742;2022-09-09T00:07:44;100625.59;;;17.77;76.03
54882;BME280;40775;51.448;4.742;2022-09-09T00:10:32;100626.53;;;17.74;75.89
54882;BME280;40775;51.448;4.742;2022-09-09T00:13:47;100625.69;;;17.71;76.30
54882;BME280;40775;51.448;4.742;2022-09-09T00:16:22;100626.59;;;17.68;76.11
54882;BME280;40775;51.448;4.742;2022-09-09T00:19:30;100617.69;;;17.72;76.11
54882;BME280;40775;51.448;4.742;2022-09-09T00:22:19;100620.41;;;17.68;76.28
54882;BME280;40775;51.448;4.742;2022-09-09T00:25:35;100608.03;;;17.64;76.26
54882;BME280;40775;51.448;4.742;2022-09-09T00:27:50;100608.94;;;17.64;76.11
54882;BME280;40775;51.448;4.742;2022-09-09T00:30:24;100615.16;;;17.61;76.38
54882;BME280;40775;51.448;4.742;2022-09-09T00:32:59;100615.16;;;17.61;76.26
54882;BME280;40775;51.448;4.742;2022-09-09T00:35:47;100612.47;;;17.63;76.76
54882;BME280;40775;51.448;4.742;2022-09-09T00:38:24;100601.91;;;17.60;76.25
54882;BME280;40775;51.448;4.742;2022-09-09T00:41:11;100604.53;;;17.61;76.74
54882;BME280;40775;51.448;4.742;2022-09-09T00:43:41;100609.00;;;17.59;76.50
54882;BME280;40775;51.448;4.742;2022-09-09T00:49:23;100601.03;;;17.58;77.29
54882;BME280;40775;51.448;4.742;2022-09-09T00:57:37;100602.81;;;17.59;77.72
54882;BME280;40775;51.448;4.742;2022-09-09T01:03:21;100601.03;;;17.59;78.04
54882;BME280;40775;51.448;4.742;2022-09-09T01:09:34;100590.38;;;17.63;77.92
54882;BME280;40775;51.448;4.742;2022-09-09T01:12:40;100601.91;;;17.60;78.44
54882;BME280;40775;51.448;4.742;2022-09-09T01:15:18;100593.06;;;17.59;78.37
54882;BME280;40775;51.448;4.742;2022-09-09T01:18:17;100589.53;;;17.59;77.89
54882;BME280;40775;51.448;4.742;2022-09-09T01:24:14;100578.09;;;17.54;77.94
54882;BME280;40775;51.448;4.742;2022-09-09T01:26:47;100572.78;;;17.52;78.07
54882;BME280;40775;51.448;4.742;2022-09-09T01:29:18;100575.41;;;17.57;77.99
54882;BME280;40775;51.448;4.742;2022-09-09T01:31:58;100576.31;;;17.54;78.31
54882;BME280;40775;51.448;4.742;2022-09-09T01:34:33;100567.47;;;17.55;78.29
54882;BME280;40775;51.448;4.742;2022-09-09T01:37:09;100558.66;;;17.50;78.23
54882;BME280;40775;51.448;4.742;2022-09-09T01:39:40;100567.47;;;17.52;78.01
54882;BME280;40775;51.448;4.742;2022-09-09T01:42:14;100561.31;;;17.50;78.01
54882;BME280;40775;51.448;4.742;2022-09-09T01:44:43;100563.94;;;17.52;78.16
54882;BME280;40775;51.448;4.742;2022-09-09T01:47:11;100550.69;;;17.49;78.13
54882;BME280;40775;51.448;4.742;2022-09-09T01:49:38;100558.69;;;17.47;78.20
54882;BME280;40775;51.448;4.742;2022-09-09T01:52:08;100556.03;;;17.47;78.26
54882;BME280;40775;51.448;4.742;2022-09-09T01:54:39;100560.47;;;17.45;77.87
54882;BME280;40775;51.448;4.742;2022-09-09T01:57:27;100557.84;;;17.44;78.04
54882;BME280;40775;51.448;4.742;2022-09-09T02:00:07;100553.44;;;17.43;77.84
54882;BME280;40775;51.448;4.742;2022-09-09T02:05:45;100537.59;;;17.38;77.65
54882;BME280;40775;51.448;4.742;2022-09-09T02:11:19;100541.22;;;17.31;77.51
54882;BME280;40775;51.448;4.742;2022-09-09T02:13:50;100549.13;;;17.36;77.30
54882;BME280;40775;51.448;4.742;2022-09-09T02:16:39;100542.94;;;17.34;77.44
54882;BME280;40775;51.448;4.742;2022-09-09T02:20:08;100542.16;;;17.27;77.43
54882;BME280;40775;51.448;4.742;2022-09-09T02:22:31;100538.59;;;17.29;77.46
54882;BME280;40775;51.448;4.742;2022-09-09T02:25:08;100534.19;;;17.24;77.40
54882;BME280;40775;51.448;4.742;2022-09-09T02:27:37;100548.34;;;17.24;77.69
54882;BME280;40775;51.448;4.742;2022-09-09T02:30:05;100545.72;;;17.26;77.70
54882;BME280;40775;51.448;4.742;2022-09-09T02:32:34;100541.25;;;17.28;77.93
54882;BME280;40775;51.448;4.742;2022-09-09T02:35:09;100534.19;;;17.24;77.80
54882;BME280;40775;51.448;4.742;2022-09-09T02:37:42;100538.66;;;17.22;77.54
54882;BME280;40775;51.448;4.742;2022-09-09T02:40:14;100536.84;;;17.25;78.02
54882;BME280;40775;51.448;4.742;2022-09-09T02:42:47;100538.66;;;17.22;77.94
54882;BME280;40775;51.448;4.742;2022-09-09T02:45:27;100535.09;;;17.24;77.64
54882;BME280;40775;51.448;4.742;2022-09-09T02:50:54;100539.56;;;17.21;77.66
54882;BME280;40775;51.448;4.742;2022-09-09T02:56:49;100544.00;;;17.19;77.84
54882;BME280;40775;51.448;4.742;2022-09-09T02:59:20;100543.09;;;17.21;77.88
54882;BME280;40775;51.448;4.742;2022-09-09T03:01:48;100535.16;;;17.18;77.80
54882;BME280;40775;51.448;4.742;2022-09-09T03:04:15;100549.28;;;17.20;78.29
54882;BME280;40775;51.448;4.742;2022-09-09T03:06:42;100542.25;;;17.18;78.35
54882;BME280;40775;51.448;4.742;2022-09-09T03:09:09;100536.06;;;17.17;78.39
54882;BME280;40775;51.448;4.742;2022-09-09T03:11:37;100536.06;;;17.16;78.46
54882;BME280;40775;51.448;4.742;2022-09-09T03:14:05;100534.31;;;17.15;78.27
54882;BME280;40775;51.448;4.742;2022-09-09T03:16:32;100541.44;;;17.11;78.01
54882;BME280;40775;51.448;4.742;2022-09-09T03:19:01;100529.03;;;17.13;78.21
54882;BME280;40775;51.448;4.742;2022-09-09T03:21:30;100539.63;;;17.15;78.23
54882;BME280;40775;51.448;4.742;2022-09-09T03:23:57;100529.06;;;17.10;78.82
54882;BME280;40775;51.448;4.742;2022-09-09T03:26:27;100539.69;;;17.10;78.47
54882;BME280;40775;51.448;4.742;2022-09-09T03:28:54;100530.81;;;17.13;78.34
54882;BME280;40775;51.448;4.742;2022-09-09T03:31:21;100540.59;;;17.09;78.59
54882;BME280;40775;51.448;4.742;2022-09-09T03:33:48;100517.66;;;17.05;78.50
54882;BME280;40775;51.448;4.742;2022-09-09T03:36:15;100527.31;;;17.09;78.70
54882;BME280;40775;51.448;4.742;2022-09-09T03:38:42;100532.63;;;17.09;78.98
54882;BME280;40775;51.448;4.742;2022-09-09T03:41:10;100529.94;;;17.12;79.18
54882;BME280;40775;51.448;4.742;2022-09-09T03:43:38;100526.47;;;17.06;79.15
54882;BME280;40775;51.448;4.742;2022-09-09T03:46:06;100534.38;;;17.10;79.18
54882;BME280;40775;51.448;4.742;2022-09-09T03:48:37;100518.47;;;17.09;78.82
54882;BME280;40775;51.448;4.742;2022-09-09T03:51:05;100519.34;;;17.11;78.92
54882;BME280;40775;51.448;4.742;2022-09-09T03:53:32;100518.53;;;17.06;78.66
54882;BME280;40775;51.448;4.742;2022-09-09T03:56:00;100523.78;;;17.10;78.97
54882;BME280;40775;51.448;4.742;2022-09-09T03:58:28;100522.06;;;17.05;79.14
54882;BME280;40775;51.448;4.742;2022-09-09T04:01:00;100514.94;;;17.10;79.09
54882;BME280;40775;51.448;4.742;2022-09-09T04:03:28;100514.06;;;17.08;79.05
54882;BME280;40775;51.448;4.742;2022-09-09T04:05:57;100514.06;;;17.09;78.97
54882;BME280;40775;51.448;4.742;2022-09-09T04:08:26;100513.16;;;17.12;79.29
54882;BME280;40775;51.448;4.742;2022-09-09T04:10:54;100511.44;;;17.08;79.12
54882;BME280;40775;51.448;4.742;2022-09-09T04:13:27;100517.56;;;17.11;79.09
54882;BME280;40775;51.448;4.742;2022-09-09T04:15:57;100518.44;;;17.12;79.37
54882;BME280;40775;51.448;4.742;2022-09-09T04:18:25;100524.66;;;17.11;79.42
54882;BME280;40775;51.448;4.742;2022-09-09T04:20:55;100522.00;;;17.11;79.73
54882;BME280;40775;51.448;4.742;2022-09-09T04:23:26;100518.50;;;17.07;79.92
54882;BME280;40775;51.448;4.742;2022-09-09T04:25:57;100510.53;;;17.09;80.17
54882;BME280;40775;51.448;4.742;2022-09-09T04:28:28;100506.97;;;17.10;79.92
54882;BME280;40775;51.448;4.742;2022-09-09T04:30:56;100513.19;;;17.09;79.74
54882;BME280;40775;51.448;4.742;2022-09-09T04:33:24;100505.19;;;17.12;80.21
54882;BME280;40775;51.448;4.742;2022-09-09T04:35:54;100503.44;;;17.09;80.14
54882;BME280;40775;51.448;4.742;2022-09-09T04:38:21;100502.53;;;17.12;80.02
54882;BME280;40775;51.448;4.742;2022-09-09T04:40:53;100490.13;;;17.14;79.61
54882;BME280;40775;51.448;4.742;2022-09-09T04:43:21;100484.81;;;17.14;79.98
54882;BME280;40775;51.448;4.742;2022-09-09T04:45:51;100483.94;;;17.13;79.78
54882;BME280;40775;51.448;4.742;2022-09-09T04:48:21;100484.81;;;17.14;80.03
54882;BME280;40775;51.448;4.742;2022-09-09T04:51:07;100490.09;;;17.17;79.99
54882;BME280;40775;51.448;4.742;2022-09-09T04:53:36;100485.63;;;17.19;80.16
54882;BME280;40775;51.448;4.742;2022-09-09T04:56:11;100490.06;;;17.18;80.48
54882;BME280;40775;51.448;4.742;2022-09-09T04:58:40;100487.41;;;17.18;79.96
54882;BME280;40775;51.448;4.742;2022-09-09T05:01:18;100490.88;;;17.23;80.44
54882;BME280;40775;51.448;4.742;2022-09-09T05:03:46;100491.75;;;17.24;80.38
54882;BME280;40775;51.448;4.742;2022-09-09T05:06:16;100492.66;;;17.23;80.79
54882;BME280;40775;51.448;4.742;2022-09-09T05:08:44;100486.50;;;17.21;80.41
54882;BME280;40775;51.448;4.742;2022-09-09T05:11:20;100494.38;;;17.25;80.55
54882;BME280;40775;51.448;4.742;2022-09-09T05:13:47;100492.66;;;17.26;80.51
54882;BME280;40775;51.448;4.742;2022-09-09T05:16:15;100492.69;;;17.20;80.48
54882;BME280;40775;51.448;4.742;2022-09-09T05:18:44;100499.75;;;17.21;80.72
54882;BME280;40775;51.448;4.742;2022-09-09T05:21:13;100495.34;;;17.20;81.05
54882;BME280;40775;51.448;4.742;2022-09-09T05:23:40;100492.72;;;17.18;80.67
54882;BME280;40775;51.448;4.742;2022-09-09T05:26:15;100492.63;;;17.24;81.00
54882;BME280;40775;51.448;4.742;2022-09-09T05:28:44;100490.91;;;17.22;81.21
54882;BME280;40775;51.448;4.742;2022-09-09T05:31:15;100492.66;;;17.23;81.49
54882;BME280;40775;51.448;4.742;2022-09-09T05:33:45;100487.28;;;17.30;81.09
54882;BME280;40775;51.448;4.742;2022-09-09T05:36:19;100491.75;;;17.27;81.42
54882;BME280;40775;51.448;4.742;2022-09-09T05:38:47;100486.44;;;17.27;81.54
54882;BME280;40775;51.448;4.742;2022-09-09T05:41:15;100494.41;;;17.24;81.53
54882;BME280;40775;51.448;4.742;2022-09-09T05:43:43;100505.88;;;17.29;81.49
54882;BME280;40775;51.448;4.742;2022-09-09T05:46:19;100499.69;;;17.25;82.27
54882;BME280;40775;51.448;4.742;2022-09-09T05:48:48;100495.31;;;17.26;82.55
54882;BME280;40775;51.448;4.742;2022-09-09T05:51:24;100492.66;;;17.26;82.48
54882;BME280;40775;51.448;4.742;2022-09-09T05:53:53;100489.94;;;17.30;82.19
54882;BME280;40775;51.448;4.742;2022-09-09T05:56:25;100490.75;;;17.34;82.68
54882;BME280;40775;51.448;4.742;2022-09-09T05:58:53;100490.72;;;17.37;82.71
54882;BME280;40775;51.448;4.742;2022-09-09T06:01:26;100485.38;;;17.39;83.11
54882;BME280;40775;51.448;4.742;2022-09-09T06:03:53;100486.19;;;17.45;82.77
54882;BME280;40775;51.448;4.742;2022-09-09T06:06:24;100486.19;;;17.45;82.63
54882;BME280;40775;51.448;4.742;2022-09-09T06:08:55;100490.63;;;17.43;83.10
54882;BME280;40775;51.448;4.742;2022-09-09T06:11:27;100488.78;;;17.48;83.37
54882;BME280;40775;51.448;4.742;2022-09-09T06:13:58;100485.19;;;17.54;83.37
54882;BME280;40775;51.448;4.742;2022-09-09T06:16:28;100480.75;;;17.54;83.42
54882;BME280;40775;51.448;4.742;2022-09-09T06:18:56;100488.69;;;17.57;83.79
54882;BME280;40775;51.448;4.742;2022-09-09T06:21:30;100484.22;;;17.59;84.01
54882;BME280;40775;51.448;4.742;2022-09-09T06:24:00;100485.91;;;17.65;83.99
54882;BME280;40775;51.448;4.742;2022-09-09T06:26:36;100483.22;;;17.67;83.86
54882;BME280;40775;51.448;4.742;2022-09-09T06:29:04;100480.50;;;17.73;83.96
54882;BME280;40775;51.448;4.742;2022-09-09T06:31:34;100479.59;;;17.75;84.09
54882;BME280;40775;51.448;4.742;2022-09-09T06:34:08;100481.28;;;17.79;84.20
54882;BME280;40775;51.448;4.742;2022-09-09T06:36:38;100473.22;;;17.87;84.19
54882;BME280;40775;51.448;4.742;2022-09-09T06:39:06;100474.09;;;17.89;84.71
54882;BME280;40775;51.448;4.742;2022-09-09T06:41:40;100484.69;;;17.90;84.16
54882;BME280;40775;51.448;4.742;2022-09-09T06:44:07;100480.19;;;17.94;84.24
54882;BME280;40775;51.448;4.742;2022-09-09T06:46:34;100473.06;;;17.96;84.43
54882;BME280;40775;51.448;4.742;2022-09-09T06:49:02;100484.53;;;18.00;84.17
54882;BME280;40775;51.448;4.742;2022-09-09T06:51:33;100481.84;;;18.01;84.43
54882;BME280;40775;51.448;4.742;2022-09-09T06:54:02;100477.34;;;18.05;84.67
54882;BME280;40775;51.448;4.742;2022-09-09T06:56:36;100474.66;;;18.09;84.47
54882;BME280;40775;51.448;4.742;2022-09-09T06:59:05;100466.66;;;18.11;84.11
54882;BME280;40775;51.448;4.742;2022-09-09T07:01:43;100469.19;;;18.18;84.21
54882;BME280;40775;51.448;4.742;2022-09-09T07:04:22;100470.81;;;18.26;84.37
54882;BME280;40775;51.448;4.742;2022-09-09T07:06:49;100469.00;;;18.28;84.35
54882;BME280;40775;51.448;4.742;2022-09-09T07:09:16;100466.34;;;18.28;84.71
54882;BME280;40775;51.448;4.742;2022-09-09T07:11:46;100475.16;;;18.31;84.54
54882;BME280;40775;51.448;4.742;2022-09-09T07:14:14;100464.53;;;18.30;84.59
54882;BME280;40775;51.448;4.742;2022-09-09T07:16:43;100463.63;;;18.31;84.13
54882;BME280;40775;51.448;4.742;2022-09-09T07:19:12;100467.97;;;18.38;84.21
54882;BME280;40775;51.448;4.742;2022-09-09T07:21:39;100476.88;;;18.34;83.93
54882;BME280;40775;51.448;4.742;2022-09-09T07:24:07;100469.75;;;18.37;84.10
54882;BME280;40775;51.448;4.742;2022-09-09T07:26:38;100467.03;;;18.40;83.92
54882;BME280;40775;51.448;4.742;2022-09-09T07:29:07;100472.28;;;18.43;83.93
54882;BME280;40775;51.448;4.742;2022-09-09T07:31:37;100462.53;;;18.44;83.91
54882;BME280;40775;51.448;4.742;2022-09-09T07:34:07;100472.16;;;18.49;84.20
54882;BME280;40775;51.448;4.742;2022-09-09T07:36:39;100479.03;;;18.61;84.40
54882;BME280;40775;51.448;4.742;2022-09-09T07:39:09;100471.09;;;18.60;84.06
54882;BME280;40775;51.448;4.742;2022-09-09T07:41:41;100468.41;;;18.64;83.27
54882;BME280;40775;51.448;4.742;2022-09-09T07:44:11;100471.97;;;18.63;83.69
54882;BME280;40775;51.448;4.742;2022-09-09T07:46:39;100473.66;;;18.67;83.52
54882;BME280;40775;51.448;4.742;2022-09-09T07:49:07;100475.34;;;18.71;83.52
54882;BME280;40775;51.448;4.742;2022-09-09T07:51:38;100463.81;;;18.72;83.51
54882;BME280;40775;51.448;4.742;2022-09-09T07:54:11;100473.41;;;18.79;83.01
54882;BME280;40775;51.448;4.742;2022-09-09T07:56:40;100476.91;;;18.81;83.38
54882;BME280;40775;51.448;4.742;2022-09-09T07:59:08;100470.59;;;18.87;82.94
54882;BME280;40775;51.448;4.742;2022-09-09T08:01:45;100473.22;;;18.89;82.96
54882;BME280;40775;51.448;4.742;2022-09-09T08:04:17;100480.19;;;18.96;82.60
54882;BME280;40775;51.448;4.742;2022-09-09T08:06:51;100473.22;;;18.89;82.63
54882;BME280;40775;51.448;4.742;2022-09-09T08:09:20;100475.78;;;18.95;82.64
54882;BME280;40775;51.448;4.742;2022-09-09T08:11:48;100477.50;;;18.97;82.37
54882;BME280;40775;51.448;4.742;2022-09-09T08:14:15;100474.78;;;19.00;82.16
54882;BME280;40775;51.448;4.742;2022-09-09T08:16:45;100463.19;;;19.03;82.16
54882;BME280;40775;51.448;4.742;2022-09-09T08:19:13;100477.25;;;19.09;81.28
54882;BME280;40775;51.448;4.742;2022-09-09T08:21:44;100471.94;;;19.08;81.74
54882;BME280;40775;51.448;4.742;2022-09-09T08:24:12;100474.56;;;19.11;81.65
54882;BME280;40775;51.448;4.742;2022-09-09T08:26:44;100484.19;;;19.17;81.41
54882;BME280;40775;51.448;4.742;2022-09-09T08:29:13;100479.75;;;19.17;81.50
54882;BME280;40775;51.448;4.742;2022-09-09T08:31:57;100481.53;;;19.17;81.31
54882;BME280;40775;51.448;4.742;2022-09-09T08:34:25;100489.56;;;19.13;81.21
54882;BME280;40775;51.448;4.742;2022-09-09T08:36:54;100488.63;;;19.18;81.19
54882;BME280;40775;51.448;4.742;2022-09-09T08:39:22;100485.94;;;19.19;80.64
54882;BME280;40775;51.448;4.742;2022-09-09T08:42:33;100494.81;;;19.18;80.38
54882;BME280;40775;51.448;4.742;2022-09-09T08:45:37;100497.44;;;19.21;80.61
54882;BME280;40775;51.448;4.742;2022-09-09T08:51:09;100509.91;;;19.16;81.07
54882;BME280;40775;51.448;4.742;2022-09-09T08:53:43;100509.84;;;19.21;80.64
54882;BME280;40775;51.448;4.742;2022-09-09T08:56:18;100509.00;;;19.19;81.24
54882;BME280;40775;51.448;4.742;2022-09-09T08:58:54;100512.53;;;19.19;81.45
54882;BME280;40775;51.448;4.742;2022-09-09T09:07:21;100513.59;;;19.10;81.61
54882;BME280;40775;51.448;4.742;2022-09-09T09:10:15;100515.38;;;19.10;81.39
54882;BME280;40775;51.448;4.742;2022-09-09T09:13:15;100517.94;;;19.14;81.70
54882;BME280;40775;51.448;4.742;2022-09-09T09:15:51;100523.28;;;19.13;81.74
54882;BME280;40775;51.448;4.742;2022-09-09T09:18:19;100526.88;;;19.10;81.72
54882;BME280;40775;51.448;4.742;2022-09-09T09:21:13;100522.38;;;19.14;82.01
54882;BME280;40775;51.448;4.742;2022-09-09T09:23:53;100524.97;;;19.17;82.00
54882;BME280;40775;51.448;4.742;2022-09-09T09:26:25;100522.22;;;19.23;82.32
54882;BME280;40775;51.448;4.742;2022-09-09T09:28:56;100527.47;;;19.26;82.33
54882;BME280;40775;51.448;4.742;2022-09-09T09:31:25;100526.56;;;19.27;82.35
54882;BME280;40775;51.448;4.742;2022-09-09T09:33:56;100521.13;;;19.32;82.33
54882;BME280;40775;51.448;4.742;2022-09-09T09:36:39;100522.91;;;19.33;82.19
54882;BME280;40775;51.448;4.742;2022-09-09T09:39:07;100527.22;;;19.38;82.84
54882;BME280;40775;51.448;4.742;2022-09-09T09:41:55;100522.72;;;19.40;82.84
54882;BME280;40775;51.448;4.742;2022-09-09T09:44:31;100523.63;;;19.39;82.55
54882;BME280;40775;51.448;4.742;2022-09-09T09:47:12;100523.63;;;19.39;82.58
54882;BME280;40775;51.448;4.742;2022-09-09T09:49:55;100515.75;;;19.35;82.46
54882;BME280;40775;51.448;4.742;2022-09-09T09:52:29;100521.97;;;19.34;83.23
54882;BME280;40775;51.448;4.742;2022-09-09T09:54:58;100516.50;;;19.41;82.96
54882;BME280;40775;51.448;4.742;2022-09-09T09:57:34;100516.38;;;19.48;82.39
54882;BME280;40775;51.448;4.742;2022-09-09T10:00:22;100524.53;;;19.38;83.03
54882;BME280;40775;51.448;4.742;2022-09-09T10:02:50;100514.81;;;19.37;82.53
54882;BME280;40775;51.448;4.742;2022-09-09T10:05:24;100513.00;;;19.39;82.86
54882;BME280;40775;51.448;4.742;2022-09-09T10:08:05;100515.72;;;19.36;83.05
54882;BME280;40775;51.448;4.742;2022-09-09T10:16:43;100521.94;;;19.35;82.96
54882;BME280;40775;51.448;4.742;2022-09-09T10:19:19;100527.22;;;19.38;83.30
54882;BME280;40775;51.448;4.742;2022-09-09T10:28:07;100520.13;;;19.37;83.34
54882;BME280;40775;51.448;4.742;2022-09-09T10:30:55;100529.06;;;19.35;83.18
54882;BME280;40775;51.448;4.742;2022-09-09T10:36:23;100528.19;;;19.34;82.85
54882;BME280;40775;51.448;4.742;2022-09-09T10:39:11;100529.16;;;19.30;82.87
54882;BME280;40775;51.448;4.742;2022-09-09T10:42:15;100529.16;;;19.30;82.97
54882;BME280;40775;51.448;4.742;2022-09-09T10:47:59;100534.44;;;19.32;83.48
54882;BME280;40775;51.448;4.742;2022-09-09T10:54:11;100529.97;;;19.34;83.88
54882;BME280;40775;51.448;4.742;2022-09-09T10:56:43;100533.19;;;19.50;83.94
54882;BME280;40775;51.448;4.742;2022-09-09T10:59:19;100537.63;;;19.51;83.89
54882;BME280;40775;51.448;4.742;2022-09-09T11:02:15;100528.69;;;19.55;83.93
54882;BME280;40775;51.448;4.742;2022-09-09T11:07:41;100530.28;;;19.62;83.63
54882;BME280;40775;51.448;4.742;2022-09-09T11:10:36;100521.53;;;19.57;84.36
54882;BME280;40775;51.448;4.742;2022-09-09T11:13:17;100523.03;;;19.68;84.26
54882;BME280;40775;51.448;4.742;2022-09-09T11:15:51;100520.88;;;19.86;83.96
54882;BME280;40775;51.448;4.742;2022-09-09T11:18:22;100521.84;;;19.83;84.17
54882;BME280;40775;51.448;4.742;2022-09-09T11:20:59;100526.06;;;19.92;84.27
54882;BME280;40775;51.448;4.742;2022-09-09T11:24:01;100519.94;;;19.88;83.39
54882;BME280;40775;51.448;4.742;2022-09-09T11:26:58;100523.41;;;19.92;83.45
54882;BME280;40775;51.448;4.742;2022-09-09T11:38:45;100533.88;;;19.99;82.64
54882;BME280;40775;51.448;4.742;2022-09-09T11:41:21;100524.13;;;20.00;81.60
54882;BME280;40775;51.448;4.742;2022-09-09T11:43:52;100527.59;;;20.03;81.77
54882;BME280;40775;51.448;4.742;2022-09-09T11:46:34;100532.69;;;20.13;81.26
54882;BME280;40775;51.448;4.742;2022-09-09T11:49:05;100529.19;;;20.11;81.06
54882;BME280;40775;51.448;4.742;2022-09-09T11:51:34;100528.09;;;20.19;81.24
54882;BME280;40775;51.448;4.742;2022-09-09T11:56:49;100515.06;;;20.44;81.23
54882;BME280;40775;51.448;4.742;2022-09-09T11:59:28;100527.34;;;20.50;81.12
54882;BME280;40775;51.448;4.742;2022-09-09T12:02:18;100508.34;;;20.63;80.51
54882;BME280;40775;51.448;4.742;2022-09-09T12:07:38;100516.75;;;20.81;79.18
54882;BME280;40775;51.448;4.742;2022-09-09T12:10:34;100518.34;;;20.88;79.46
54882;BME280;40775;51.448;4.742;2022-09-09T12:13:21;100516.53;;;20.90;78.08
54882;BME280;40775;51.448;4.742;2022-09-09T12:15:58;100520.75;;;20.97;77.72
54882;BME280;40775;51.448;4.742;2022-09-09T12:18:38;100515.44;;;20.97;77.51
54882;BME280;40775;51.448;4.742;2022-09-09T12:21:53;100525.97;;;21.02;77.91
54882;BME280;40775;51.448;4.742;2022-09-09T12:24:50;100522.06;;;21.15;77.87
54882;BME280;40775;51.448;4.742;2022-09-09T12:27:33;100516.47;;;21.24;77.50
54882;BME280;40775;51.448;4.742;2022-09-09T12:30:14;100520.06;;;21.21;77.18
54882;BME280;40775;51.448;4.742;2022-09-09T12:32:42;100515.41;;;21.29;76.35
54882;BME280;40775;51.448;4.742;2022-09-09T12:35:27;100514.44;;;21.32;76.86
54882;BME280;40775;51.448;4.742;2022-09-09T12:38:02;100514.34;;;21.35;76.15
54882;BME280;40775;51.448;4.742;2022-09-09T12:40:33;100506.09;;;21.44;75.86
54882;BME280;40775;51.448;4.742;2022-09-09T12:43:19;100506.53;;;21.58;74.72
54882;BME280;40775;51.448;4.742;2022-09-09T12:45:50;100496.16;;;21.77;75.17
54882;BME280;40775;51.448;4.742;2022-09-09T12:48:40;100500.34;;;21.86;74.33
54882;BME280;40775;51.448;4.742;2022-09-09T12:51:27;100499.47;;;21.85;74.50
54882;BME280;40775;51.448;4.742;2022-09-09T12:53:56;100491.59;;;21.81;74.11
54882;BME280;40775;51.448;4.742;2022-09-09T12:56:31;100490.34;;;21.93;72.99
54882;BME280;40775;51.448;4.742;2022-09-09T12:58:59;100497.41;;;21.95;73.64
54882;BME280;40775;51.448;4.742;2022-09-09T13:01:32;100494.03;;;21.88;72.09
54882;BME280;40775;51.448;4.742;2022-09-09T13:04:00;100496.66;;;21.90;72.67
54882;BME280;40775;51.448;4.742;2022-09-09T13:06:30;100503.22;;;21.80;72.19
54882;BME280;40775;51.448;4.742;2022-09-09T13:09:02;100496.53;;;21.95;72.58
54882;BME280;40775;51.448;4.742;2022-09-09T13:11:40;100501.28;;;22.13;71.31
54882;BME280;40775;51.448;4.742;2022-09-09T13:14:28;100495.56;;;22.25;71.60
54882;BME280;40775;51.448;4.742;2022-09-09T13:17:04;100500.19;;;22.46;71.69
54882;BME280;40775;51.448;4.742;2022-09-09T13:19:44;100505.06;;;22.34;71.27
54882;BME280;40775;51.448;4.742;2022-09-09T13:22:24;100505.81;;;22.37;71.84
54882;BME280;40775;51.448;4.742;2022-09-09T13:25:21;100501.56;;;22.32;70.36
54882;BME280;40775;51.448;4.742;2022-09-09T13:30:32;100503.22;;;22.36;69.55
54882;BME280;40775;51.448;4.742;2022-09-09T13:36:09;100502.88;;;22.46;69.40
54882;BME280;40775;51.448;4.742;2022-09-09T13:38:59;100496.41;;;22.52;69.51
54882;BME280;40775;51.448;4.742;2022-09-09T13:41:43;100501.97;;;22.46;69.55
54882;BME280;40775;51.448;4.742;2022-09-09T13:44:31;100491.19;;;22.49;69.38
54882;BME280;40775;51.448;4.742;2022-09-09T13:47:16;100503.53;;;22.53;69.43
54882;BME280;40775;51.448;4.742;2022-09-09T13:49:44;100499.03;;;22.54;69.09
54882;BME280;40775;51.448;4.742;2022-09-09T13:52:17;100498.81;;;22.60;69.08
54882;BME280;40775;51.448;4.742;2022-09-09T13:54:50;100493.25;;;22.66;68.85
54882;BME280;40775;51.448;4.742;2022-09-09T13:57:23;100490.28;;;22.75;68.33
54882;BME280;40775;51.448;4.742;2022-09-09T13:59:53;100493.38;;;22.63;67.48
54882;BME280;40775;51.448;4.742;2022-09-09T14:02:37;100491.50;;;22.65;68.75
54882;BME280;40775;51.448;4.742;2022-09-09T14:05:06;100504.22;;;22.58;68.27
54882;BME280;40775;51.448;4.742;2022-09-09T14:07:33;100524.06;;;22.52;68.46
54882;BME280;40775;51.448;4.742;2022-09-09T14:10:00;100519.28;;;22.08;69.05
54882;BME280;40775;51.448;4.742;2022-09-09T14:12:27;100530.34;;;21.96;71.58
54882;BME280;40775;51.448;4.742;2022-09-09T14:14:54;100543.94;;;21.58;71.85
54882;BME280;40775;51.448;4.742;2022-09-09T14:17:21;100540.88;;;21.43;72.55
54882;BME280;40775;51.448;4.742;2022-09-09T14:19:49;100545.38;;;21.41;73.09
54882;BME280;40775;51.448;4.742;2022-09-09T14:22:16;100550.81;;;21.38;73.70
54882;BME280;40775;51.448;4.742;2022-09-09T14:24:44;100546.38;;;21.37;74.11
54882;BME280;40775;51.448;4.742;2022-09-09T14:27:11;100541.94;;;21.36;74.58
54882;BME280;40775;51.448;4.742;2022-09-09T14:29:38;100538.44;;;21.34;74.47
54882;BME280;40775;51.448;4.742;2022-09-09T14:32:05;100548.97;;;21.40;74.93
54882;BME280;40775;51.448;4.742;2022-09-09T14:34:38;100543.78;;;21.34;74.91
54882;BME280;40775;51.448;4.742;2022-09-09T14:37:05;100535.75;;;21.34;74.94
54882;BME280;40775;51.448;4.742;2022-09-09T14:39:33;100531.34;;;21.33;74.93
54882;BME280;40775;51.448;4.742;2022-09-09T14:42:00;100536.53;;;21.39;75.61
54882;BME280;40775;51.448;4.742;2022-09-09T14:44:28;100532.13;;;21.36;75.56
54882;BME280;40775;51.448;4.742;2022-09-09T14:46:55;100527.59;;;21.40;75.28
54882;BME280;40775;51.448;4.742;2022-09-09T14:49:22;100530.53;;;21.31;75.05
54882;BME280;40775;51.448;4.742;2022-09-09T14:51:49;100526.78;;;21.38;75.67
54882;BME280;40775;51.448;4.742;2022-09-09T14:54:16;100535.91;;;21.29;75.24
54882;BME280;40775;51.448;4.742;2022-09-09T14:56:43;100530.53;;;21.31;75.53